createdAt,value
2023-02-02T00:01:51.117Z,1.52
2023-02-02T00:04:19.480Z,1.50
2023-02-02T00:06:46.773Z,1.92
2023-02-02T00:09:15.388Z,1.60
2023-02-02T00:11:44.496Z,2.15
2023-02-02T00:14:12.164Z,1.75
2023-02-02T00:16:40.649Z,1.90
2023-02-02T00:19:09.726Z,1.60
2023-02-02T00:21:38.216Z,1.90
2023-02-02T00:24:06.384Z,1.40
2023-02-02T00:26:33.646Z,1.52
2023-02-02T00:29:01.234Z,1.70
2023-02-02T00:31:28.478Z,1.60
2023-02-02T00:33:55.663Z,1.58
2023-02-02T00:36:23.130Z,2.17
2023-02-02T00:38:51.340Z,1.85
2023-02-02T00:41:18.565Z,1.70
2023-02-02T00:43:48.169Z,1.88
2023-02-02T00:46:16.041Z,1.33
2023-02-02T00:48:43.240Z,1.55
2023-02-02T00:51:10.375Z,1.58
2023-02-02T00:53:37.547Z,1.58
2023-02-02T00:56:04.899Z,1.58
2023-02-02T00:58:32.039Z,1.98
2023-02-02T01:00:59.393Z,1.67
2023-02-02T01:03:26.581Z,1.55
2023-02-02T01:05:53.739Z,1.65
2023-02-02T01:08:20.881Z,1.98
2023-02-02T01:10:48.105Z,2.00
2023-02-02T01:13:15.307Z,1.70
2023-02-02T01:15:42.511Z,1.80
2023-02-02T01:18:09.767Z,1.73
2023-02-02T01:20:37.246Z,1.40
2023-02-02T01:23:04.427Z,1.85
2023-02-02T01:25:32.671Z,2.30
2023-02-02T01:27:59.830Z,1.80
2023-02-02T01:30:27.009Z,2.00
2023-02-02T01:32:54.190Z,1.55
2023-02-02T01:35:21.501Z,1.58
2023-02-02T01:37:48.720Z,1.90
2023-02-02T01:40:15.851Z,1.75
2023-02-02T01:42:43.002Z,1.73
2023-02-02T01:45:16.695Z,2.25
2023-02-02T01:47:46.049Z,1.50
2023-02-02T01:50:14.551Z,1.80
2023-02-02T01:52:42.905Z,2.17
2023-02-02T01:55:12.378Z,2.17
2023-02-02T01:57:41.632Z,1.52
2023-02-02T02:00:10.485Z,1.90
2023-02-02T02:02:38.150Z,1.60
2023-02-02T02:05:08.427Z,1.50
2023-02-02T02:07:35.642Z,1.52
2023-02-02T02:10:02.859Z,1.58
2023-02-02T02:12:30.010Z,1.90
2023-02-02T02:15:15.717Z,1.90
2023-02-02T02:18:02.027Z,1.67
2023-02-02T02:20:54.025Z,1.90
2023-02-02T02:23:45.899Z,1.45
2023-02-02T02:26:31.620Z,1.67
2023-02-02T02:29:11.125Z,2.05
2023-02-02T02:31:50.370Z,2.45
2023-02-02T02:34:21.377Z,2.28
2023-02-02T02:36:55.205Z,1.60
2023-02-02T02:39:25.536Z,1.73
2023-02-02T02:41:54.783Z,2.75
2023-02-02T02:44:22.805Z,2.00
2023-02-02T02:46:50.653Z,1.40
2023-02-02T02:49:17.924Z,1.60
2023-02-02T02:51:50.896Z,1.73
2023-02-02T02:54:22.941Z,1.73
2023-02-02T02:56:53.264Z,2.10
2023-02-02T02:59:23.421Z,1.90
2023-02-02T03:02:17.087Z,1.55
2023-02-02T03:04:44.278Z,1.70
2023-02-02T03:07:14.432Z,2.00
2023-02-02T03:09:42.696Z,1.60
2023-02-02T03:12:10.105Z,1.63
2023-02-02T03:14:37.510Z,2.10
2023-02-02T03:17:04.701Z,1.50
2023-02-02T03:19:32.068Z,1.73
2023-02-02T03:21:59.230Z,1.83
2023-02-02T03:24:26.536Z,2.17
2023-02-02T03:26:53.986Z,3.42
2023-02-02T03:29:21.221Z,1.60
2023-02-02T03:31:48.617Z,2.03
2023-02-02T03:34:15.733Z,1.55
2023-02-02T03:36:42.968Z,2.05
2023-02-02T03:39:10.193Z,2.08
2023-02-02T03:41:37.395Z,2.00
2023-02-02T03:44:04.552Z,1.95
2023-02-02T03:46:31.768Z,2.15
2023-02-02T03:48:58.904Z,2.10
2023-02-02T03:51:26.140Z,1.50
2023-02-02T03:53:53.280Z,1.80
2023-02-02T03:56:20.539Z,1.98
2023-02-02T03:58:47.747Z,1.67
2023-02-02T04:01:15.732Z,2.00
2023-02-02T04:03:43.321Z,1.63
2023-02-02T04:06:10.552Z,1.95
2023-02-02T04:08:39.437Z,1.83
2023-02-02T04:11:09.857Z,1.90
2023-02-02T04:13:37.038Z,1.67
2023-02-02T04:16:04.457Z,1.65
2023-02-02T04:18:31.644Z,2.28
2023-02-02T04:21:02.592Z,1.83
2023-02-02T04:23:29.735Z,1.50
2023-02-02T04:25:57.207Z,1.75
2023-02-02T04:28:24.615Z,1.48
2023-02-02T04:30:52.601Z,1.90
2023-02-02T04:33:19.988Z,1.88
2023-02-02T04:35:47.172Z,1.70
2023-02-02T04:38:14.711Z,1.67
2023-02-02T04:40:42.644Z,1.77
2023-02-02T04:43:10.147Z,1.73
2023-02-02T04:45:37.558Z,1.55
2023-02-02T04:48:05.365Z,1.80
2023-02-02T04:50:32.582Z,1.65
2023-02-02T04:52:59.910Z,1.80
2023-02-02T04:55:27.235Z,1.80
2023-02-02T04:57:54.484Z,1.88
2023-02-02T05:00:21.788Z,1.50
2023-02-02T05:02:48.923Z,1.70
2023-02-02T05:05:16.180Z,1.60
2023-02-02T05:07:43.394Z,1.85
2023-02-02T05:10:11.018Z,1.30
2023-02-02T05:12:38.271Z,1.63
2023-02-02T05:15:05.770Z,1.60
2023-02-02T05:17:33.222Z,1.60
2023-02-02T05:20:00.414Z,1.35
2023-02-02T05:22:27.861Z,2.03
2023-02-02T05:24:55.044Z,1.58
2023-02-02T05:27:22.399Z,1.25
2023-02-02T05:29:49.597Z,2.00
2023-02-02T05:32:16.770Z,1.70
2023-02-02T05:34:43.947Z,1.60
2023-02-02T05:37:11.200Z,1.83
2023-02-02T05:39:38.417Z,1.98
2023-02-02T05:42:05.564Z,1.27
2023-02-02T05:44:32.802Z,1.38
2023-02-02T05:47:00.160Z,1.38
2023-02-02T05:49:27.428Z,1.20
2023-02-02T05:51:55.794Z,1.40
2023-02-02T05:54:22.960Z,1.30
2023-02-02T05:56:51.323Z,1.60
2023-02-02T05:59:19.008Z,1.70
2023-02-02T06:01:47.092Z,1.50
2023-02-02T06:04:14.367Z,1.27
2023-02-02T06:06:43.183Z,1.40
2023-02-02T06:09:10.580Z,1.65
2023-02-02T06:11:39.511Z,1.42
2023-02-02T06:14:07.616Z,1.50
2023-02-02T06:16:34.835Z,1.80
2023-02-02T06:19:02.044Z,1.90
2023-02-02T06:21:31.250Z,1.23
2023-02-02T06:23:59.460Z,1.60
2023-02-02T06:26:27.134Z,1.55
2023-02-02T06:28:55.201Z,1.50
2023-02-02T06:31:22.589Z,1.60
2023-02-02T06:33:53.812Z,1.45
2023-02-02T06:36:20.978Z,1.25
2023-02-02T06:38:52.015Z,1.33
2023-02-02T06:41:20.449Z,1.38
2023-02-02T06:43:48.231Z,1.45
2023-02-02T06:46:15.744Z,1.92
2023-02-02T06:48:43.100Z,1.45
2023-02-02T06:51:10.353Z,1.30
2023-02-02T06:53:37.498Z,1.50
2023-02-02T06:56:06.425Z,2.00
2023-02-02T06:58:33.981Z,1.65
2023-02-02T07:01:05.695Z,1.70
2023-02-02T07:03:33.301Z,1.58
2023-02-02T07:06:00.733Z,1.33
2023-02-02T07:08:27.932Z,1.58
2023-02-02T07:11:13.855Z,1.83
2023-02-02T07:13:42.256Z,1.48
2023-02-02T07:16:09.566Z,1.80
2023-02-02T07:18:39.998Z,2.00
2023-02-02T07:21:07.759Z,1.67
2023-02-02T07:23:35.082Z,1.55
2023-02-02T07:26:06.323Z,1.95
2023-02-02T07:28:33.680Z,1.80
2023-02-02T07:31:01.501Z,1.50
2023-02-02T07:33:28.719Z,1.65
2023-02-02T07:35:55.933Z,1.67
2023-02-02T07:38:23.112Z,1.65
2023-02-02T07:40:50.289Z,1.50
2023-02-02T07:43:19.497Z,1.50
2023-02-02T07:45:46.646Z,1.65
2023-02-02T07:48:13.849Z,1.75
2023-02-02T07:50:41.020Z,1.48
2023-02-02T07:53:08.228Z,1.40
2023-02-02T07:55:35.588Z,2.17
2023-02-02T07:58:02.911Z,1.38
2023-02-02T08:00:30.137Z,1.40
2023-02-02T08:02:57.448Z,1.50
2023-02-02T08:05:24.868Z,1.98
2023-02-02T08:07:52.173Z,1.42
2023-02-02T08:10:19.631Z,1.75
2023-02-02T08:12:46.840Z,1.88
2023-02-02T08:15:14.024Z,1.40
2023-02-02T08:17:44.934Z,1.92
2023-02-02T08:20:13.575Z,1.55
2023-02-02T08:22:40.693Z,1.75
2023-02-02T08:25:08.269Z,2.25
2023-02-02T08:27:37.789Z,1.77
2023-02-02T08:30:05.356Z,1.60
2023-02-02T08:32:32.676Z,1.60
2023-02-02T08:34:59.868Z,1.98
2023-02-02T08:37:27.397Z,1.83
2023-02-02T08:39:54.528Z,1.75
2023-02-02T08:42:21.743Z,2.08
2023-02-02T08:46:02.882Z,1.60
2023-02-02T08:47:36.016Z,2.10
2023-02-02T08:50:03.175Z,1.88
2023-02-02T08:52:30.349Z,1.95
2023-02-02T08:54:57.545Z,1.80
2023-02-02T08:57:25.014Z,1.80
2023-02-02T08:59:52.347Z,2.40
2023-02-02T09:02:19.549Z,2.08
2023-02-02T09:04:48.332Z,1.80
2023-02-02T09:07:15.479Z,1.95
2023-02-02T09:09:42.688Z,1.90
2023-02-02T09:12:09.890Z,2.05
2023-02-02T09:14:37.062Z,2.05
2023-02-02T09:17:04.292Z,1.90
2023-02-02T09:19:31.466Z,1.42
2023-02-02T09:21:58.709Z,1.67
2023-02-02T09:24:25.915Z,1.60
2023-02-02T09:26:54.061Z,2.28
2023-02-02T09:29:21.393Z,1.95
2023-02-02T09:31:48.703Z,1.67
2023-02-02T09:34:16.139Z,1.30
2023-02-02T09:36:43.923Z,1.80
2023-02-02T09:39:16.748Z,1.80
2023-02-02T09:41:55.744Z,1.88
2023-02-02T09:44:29.132Z,1.50
2023-02-02T09:46:56.253Z,1.98
2023-02-02T09:49:38.739Z,2.08
2023-02-02T09:52:11.553Z,1.98
2023-02-02T09:54:47.179Z,1.90
2023-02-02T09:57:20.794Z,1.50
2023-02-02T09:59:50.315Z,1.77
2023-02-02T10:02:19.500Z,1.63
2023-02-02T10:04:49.521Z,1.98
2023-02-02T10:07:28.414Z,1.90
2023-02-02T10:10:00.319Z,1.83
2023-02-02T10:12:47.751Z,1.70
2023-02-02T10:15:38.503Z,1.85
2023-02-02T10:18:11.581Z,2.30
2023-02-02T10:20:44.939Z,1.98
2023-02-02T10:23:21.316Z,1.88
2023-02-02T10:26:15.184Z,1.50
2023-02-02T10:29:02.797Z,1.70
2023-02-02T10:31:43.087Z,1.50
2023-02-02T10:34:16.145Z,1.25
2023-02-02T10:36:51.238Z,1.30
2023-02-02T10:39:21.572Z,1.80
2023-02-02T10:41:48.778Z,1.88
2023-02-02T10:44:29.310Z,2.28
2023-02-02T10:46:58.587Z,1.40
2023-02-02T10:49:33.734Z,1.60
2023-02-02T10:52:00.969Z,1.80
2023-02-02T10:54:56.365Z,1.60
2023-02-02T10:57:44.402Z,1.92
2023-02-02T11:00:23.062Z,1.85
2023-02-02T11:02:51.383Z,1.77
2023-02-02T11:05:39.862Z,1.55
2023-02-02T11:08:15.892Z,1.73
2023-02-02T11:10:44.759Z,1.70
2023-02-02T11:13:22.769Z,1.45
2023-02-02T11:15:50.160Z,1.60
2023-02-02T11:18:35.572Z,1.70
2023-02-02T11:23:32.080Z,1.58
2023-02-02T11:26:01.486Z,1.50
2023-02-02T11:28:33.021Z,1.55
2023-02-02T11:31:00.250Z,2.50
2023-02-02T11:33:29.312Z,1.35
2023-02-02T11:35:58.449Z,1.45
2023-02-02T11:38:26.545Z,1.27
2023-02-02T11:41:05.176Z,1.40
2023-02-02T11:43:36.182Z,1.40
2023-02-02T11:46:04.671Z,1.60
2023-02-02T11:48:34.118Z,1.23
2023-02-02T11:51:02.195Z,1.45
2023-02-02T11:53:43.443Z,1.10
2023-02-02T11:56:18.451Z,2.38
2023-02-02T11:58:47.093Z,1.55
2023-02-02T12:01:31.038Z,1.48
2023-02-02T12:04:02.745Z,1.95
2023-02-02T12:06:36.340Z,1.48
2023-02-02T12:09:10.652Z,1.60
2023-02-02T12:11:37.793Z,1.30
2023-02-02T12:14:23.933Z,1.27
2023-02-02T12:17:03.890Z,1.60
2023-02-02T12:19:51.865Z,1.38
2023-02-02T12:22:31.220Z,1.40
2023-02-02T12:25:07.443Z,1.10
2023-02-02T12:27:45.003Z,1.50
2023-02-02T12:30:28.294Z,1.38
2023-02-02T12:33:10.828Z,1.15
2023-02-02T12:35:47.661Z,1.38
2023-02-02T12:38:14.830Z,1.30
2023-02-02T12:40:48.177Z,1.40
2023-02-02T12:43:15.293Z,1.60
2023-02-02T12:46:01.437Z,1.48
2023-02-02T12:48:28.668Z,1.40
2023-02-02T12:51:14.595Z,1.50
2023-02-02T12:54:35.162Z,1.67
2023-02-02T12:56:48.968Z,1.73
2023-02-02T12:59:37.029Z,2.60
2023-02-02T13:02:23.184Z,1.30
2023-02-02T13:05:09.123Z,1.30
2023-02-02T13:07:47.931Z,1.65
2023-02-02T13:10:18.058Z,1.50
2023-02-02T13:12:48.969Z,1.50
2023-02-02T13:15:20.624Z,1.48
2023-02-02T13:17:53.739Z,1.65
2023-02-02T13:20:44.285Z,1.70
2023-02-02T13:23:19.365Z,1.80
2023-02-02T13:26:10.015Z,2.28
2023-02-02T13:28:37.320Z,1.55
2023-02-02T13:31:07.980Z,2.00
2023-02-02T13:33:37.326Z,2.10
2023-02-02T13:36:09.160Z,1.80
2023-02-02T13:38:42.087Z,1.90
2023-02-02T13:41:12.996Z,1.98
2023-02-02T13:43:49.741Z,1.80
2023-02-02T13:46:32.245Z,1.90
2023-02-02T13:49:17.964Z,2.08
2023-02-02T13:52:00.430Z,1.75
2023-02-02T13:54:27.606Z,1.67
2023-02-02T13:57:13.586Z,2.20
2023-02-02T13:59:59.567Z,1.88
2023-02-02T14:02:47.955Z,2.05
2023-02-02T14:05:28.790Z,1.73
2023-02-02T14:08:06.650Z,1.60
2023-02-02T14:10:38.258Z,1.88
2023-02-02T14:13:33.253Z,1.67
2023-02-02T14:16:02.912Z,1.50
2023-02-02T14:18:54.281Z,1.70
2023-02-02T14:21:33.737Z,2.55
2023-02-02T14:24:05.288Z,1.70
2023-02-02T14:26:43.518Z,1.73
2023-02-02T14:29:31.983Z,2.10
2023-02-02T14:31:59.233Z,2.33
2023-02-02T14:34:36.459Z,1.80
2023-02-02T14:37:03.683Z,1.85
2023-02-02T14:39:32.027Z,1.85
2023-02-02T14:42:35.605Z,3.35
2023-02-02T14:45:10.226Z,1.88
2023-02-02T14:47:48.399Z,2.00
2023-02-02T14:50:21.446Z,2.17
2023-02-02T14:52:57.464Z,1.35
2023-02-02T14:55:25.618Z,2.00
2023-02-02T14:57:58.249Z,1.83
2023-02-02T15:00:36.081Z,1.98
2023-02-02T15:03:34.085Z,1.67
2023-02-02T15:06:14.767Z,1.75
2023-02-02T15:08:41.907Z,1.50
2023-02-02T15:11:27.915Z,1.58
2023-02-02T15:14:06.866Z,1.80
2023-02-02T15:16:36.582Z,1.70
2023-02-02T15:19:11.532Z,1.70
2023-02-02T15:24:07.139Z,1.90
2023-02-02T15:26:37.920Z,1.90
2023-02-02T15:29:14.816Z,1.80
2023-02-02T15:31:46.046Z,2.05
2023-02-02T15:34:28.492Z,2.10
2023-02-02T15:37:00.803Z,1.52
2023-02-02T15:39:33.682Z,1.67
2023-02-02T15:42:20.739Z,1.65
2023-02-02T15:44:47.916Z,1.60
2023-02-02T15:47:20.484Z,1.95
2023-02-02T15:49:47.713Z,1.77
2023-02-02T15:52:28.158Z,1.83
2023-02-02T15:54:56.812Z,1.65
2023-02-02T15:57:27.057Z,2.13
2023-02-02T15:59:54.219Z,2.08
2023-02-02T16:02:23.997Z,1.70
2023-02-02T16:04:51.205Z,2.00
2023-02-02T16:07:29.590Z,2.10
2023-02-02T16:09:57.040Z,1.80
2023-02-02T16:12:24.620Z,1.65
2023-02-02T16:14:52.858Z,1.80
2023-02-02T16:17:24.975Z,1.88
2023-02-02T16:19:57.310Z,1.77
2023-02-02T16:22:25.443Z,1.88
2023-02-02T16:24:54.685Z,1.90
2023-02-02T16:27:27.292Z,2.17
2023-02-02T16:29:55.419Z,2.05
2023-02-02T16:32:30.547Z,1.70
2023-02-02T16:34:58.176Z,2.05
2023-02-02T16:37:28.307Z,1.92
2023-02-02T16:39:56.933Z,2.03
2023-02-02T16:42:25.660Z,1.80
2023-02-02T16:44:52.950Z,2.28
2023-02-02T16:47:38.937Z,2.03
2023-02-02T16:50:06.531Z,2.00
2023-02-02T16:52:34.097Z,1.80
2023-02-02T16:55:02.058Z,2.25
2023-02-02T16:57:34.514Z,2.00
2023-02-02T17:00:03.271Z,1.83
2023-02-02T17:02:35.765Z,1.83
2023-02-02T17:05:17.897Z,2.00
2023-02-02T17:07:49.646Z,2.03
2023-02-02T17:10:19.818Z,2.00
2023-02-02T17:12:47.540Z,2.70
2023-02-02T17:15:17.687Z,2.55
2023-02-02T17:17:45.467Z,2.28
2023-02-02T17:20:13.474Z,2.13
2023-02-02T17:22:42.264Z,1.92
2023-02-02T17:25:17.258Z,2.13
2023-02-02T17:27:45.234Z,2.00
2023-02-02T17:30:17.327Z,1.83
2023-02-02T17:32:44.536Z,2.55
2023-02-02T17:35:16.457Z,2.40
2023-02-02T17:37:43.875Z,2.42
2023-02-02T17:40:17.942Z,2.47
2023-02-02T17:42:45.763Z,2.20
2023-02-02T17:45:20.864Z,2.33
2023-02-02T17:47:48.662Z,2.40
2023-02-02T17:50:16.062Z,2.50
2023-02-02T17:52:43.652Z,1.95
2023-02-02T17:55:13.418Z,2.60
2023-02-02T17:57:40.699Z,2.10
2023-02-02T18:00:08.416Z,2.10
2023-02-02T18:02:35.650Z,1.90
2023-02-02T18:05:03.624Z,2.30
2023-02-02T18:07:30.832Z,1.92
2023-02-02T18:10:03.404Z,2.20
2023-02-02T18:12:34.812Z,2.35
2023-02-02T18:15:02.860Z,2.17
2023-02-02T18:17:31.056Z,2.45
2023-02-02T18:19:59.696Z,2.08
2023-02-02T18:22:27.404Z,2.72
2023-02-02T18:24:54.588Z,2.47
2023-02-02T18:27:21.806Z,2.20
2023-02-02T18:29:48.986Z,2.17
2023-02-02T18:32:17.673Z,2.35
2023-02-02T18:34:47.564Z,2.20
2023-02-02T18:37:14.758Z,2.30
2023-02-02T18:39:41.883Z,2.10
2023-02-02T18:42:09.275Z,1.80
2023-02-02T18:44:38.413Z,1.92
2023-02-02T18:47:05.892Z,1.77
2023-02-02T18:49:33.070Z,2.03
2023-02-02T18:52:00.335Z,2.33
2023-02-02T18:54:27.641Z,2.10
2023-02-02T18:56:55.108Z,2.03
2023-02-02T18:59:22.345Z,2.10
2023-02-02T19:01:49.579Z,2.17
2023-02-02T19:04:16.842Z,2.00
2023-02-02T19:07:02.616Z,2.25
2023-02-02T19:09:29.801Z,3.20
2023-02-02T19:11:57.172Z,2.30
2023-02-02T19:14:27.920Z,3.10
2023-02-02T19:16:59.859Z,2.28
2023-02-02T19:19:36.039Z,2.80
2023-02-02T19:22:22.593Z,2.20
2023-02-02T19:24:50.328Z,2.40
2023-02-02T19:27:22.479Z,2.33
2023-02-02T19:29:51.999Z,2.40
2023-02-02T19:32:21.834Z,2.10
2023-02-02T19:34:57.296Z,2.70
2023-02-02T19:37:26.270Z,3.15
2023-02-02T19:40:02.239Z,2.38
2023-02-02T19:42:29.394Z,2.90
2023-02-02T19:44:57.246Z,2.55
2023-02-02T19:47:28.710Z,2.38
2023-02-02T19:49:56.049Z,2.97
2023-02-02T19:52:25.475Z,2.65
2023-02-02T19:54:53.398Z,2.45
2023-02-02T19:57:26.736Z,2.95
2023-02-02T19:59:55.113Z,2.28
2023-02-02T20:02:41.270Z,2.70
2023-02-02T20:05:19.115Z,2.45
2023-02-02T20:07:46.331Z,3.00
2023-02-02T20:10:13.563Z,2.42
2023-02-02T20:12:40.689Z,2.65
2023-02-02T20:15:22.550Z,2.70
2023-02-02T20:17:49.728Z,3.00
2023-02-02T20:20:30.592Z,2.45
2023-02-02T20:22:58.299Z,2.50
2023-02-02T20:25:25.538Z,2.80
2023-02-02T20:27:53.652Z,2.60
2023-02-02T20:30:26.785Z,3.58
2023-02-02T20:33:02.945Z,3.60
2023-02-02T20:35:41.724Z,2.63
2023-02-02T20:38:21.169Z,2.63
2023-02-02T20:40:48.399Z,3.00
2023-02-02T20:43:16.036Z,2.60
2023-02-02T20:45:43.772Z,3.08
2023-02-02T20:48:12.460Z,2.85
2023-02-02T20:50:40.414Z,2.70
2023-02-02T20:53:08.103Z,2.63
2023-02-02T20:55:37.021Z,2.50
2023-02-02T20:58:04.927Z,2.30
2023-02-02T21:00:32.186Z,2.50
2023-02-02T21:02:59.459Z,2.70
2023-02-02T21:05:26.695Z,2.90
2023-02-02T21:07:56.763Z,2.75
2023-02-02T21:10:25.306Z,2.80
2023-02-02T21:12:52.673Z,2.85
2023-02-02T21:15:19.881Z,2.90
2023-02-02T21:17:47.041Z,2.30
2023-02-02T21:20:14.877Z,2.70
2023-02-02T21:22:42.264Z,3.20
2023-02-02T21:25:10.152Z,2.90
2023-02-02T21:27:41.084Z,2.17
2023-02-02T21:30:11.892Z,2.95
2023-02-02T21:32:39.082Z,2.30
2023-02-02T21:35:06.885Z,2.28
2023-02-02T21:37:37.659Z,2.50
2023-02-02T21:40:12.766Z,2.63
2023-02-02T21:42:40.087Z,2.30
2023-02-02T21:45:26.101Z,2.67
2023-02-02T21:47:57.983Z,2.22
2023-02-02T21:50:38.568Z,2.10
2023-02-02T21:53:19.180Z,2.08
2023-02-02T21:55:47.533Z,2.00
2023-02-02T21:58:25.777Z,2.30
2023-02-02T22:00:54.181Z,2.53
2023-02-02T22:03:21.474Z,2.40
2023-02-02T22:05:48.827Z,2.20
2023-02-02T22:08:20.379Z,2.25
2023-02-02T22:10:47.683Z,2.00
2023-02-02T22:13:17.318Z,2.30
2023-02-02T22:15:48.070Z,2.08
2023-02-02T22:18:17.498Z,3.35
2023-02-02T22:20:47.250Z,2.75
2023-02-02T22:23:18.943Z,2.15
2023-02-02T22:25:47.459Z,2.38
2023-02-02T22:28:22.632Z,2.50
2023-02-02T22:30:51.454Z,2.47
2023-02-02T22:33:18.767Z,1.80
2023-02-02T22:35:46.442Z,2.22
2023-02-02T22:38:18.216Z,1.95
2023-02-02T22:40:45.748Z,2.30
2023-02-02T22:43:14.869Z,2.15
2023-02-02T22:45:42.027Z,2.03
2023-02-02T22:48:09.364Z,2.25
2023-02-02T22:50:36.529Z,2.28
2023-02-02T22:53:04.525Z,2.40
2023-02-02T22:55:32.274Z,1.83
2023-02-02T22:57:59.516Z,1.90
2023-02-02T23:00:28.401Z,1.90
2023-02-02T23:02:56.755Z,2.35
2023-02-02T23:05:24.710Z,2.10
2023-02-02T23:07:51.986Z,1.70
2023-02-02T23:10:20.481Z,2.10
2023-02-02T23:12:48.267Z,2.15
2023-02-02T23:15:16.004Z,2.00
2023-02-02T23:17:43.349Z,1.98
2023-02-02T23:20:11.928Z,1.98
2023-02-02T23:22:39.106Z,2.20
2023-02-02T23:25:06.825Z,2.30
2023-02-02T23:27:34.103Z,2.20
2023-02-02T23:30:01.356Z,1.60
2023-02-02T23:32:28.607Z,1.95
2023-02-02T23:34:55.760Z,1.92
2023-02-02T23:37:22.924Z,2.00
2023-02-02T23:39:50.144Z,2.17
2023-02-02T23:42:17.403Z,2.08
2023-02-02T23:44:44.616Z,1.95
2023-02-02T23:47:11.823Z,2.38
2023-02-02T23:49:39.446Z,1.92
2023-02-02T23:52:07.079Z,1.90
2023-02-02T23:54:34.563Z,1.88
2023-02-02T23:57:02.256Z,1.80
2023-02-02T23:59:29.558Z,2.42
